sensor_id;sensor_type;location;lat;lon;timestamp;P1;durP1;ratioP1;P2;durP2;ratioP2
35576;SDS011;21680;52.400;16.920;2023-03-03T00:01:27;84.40;;;28.50;;
35576;SDS011;21680;52.400;16.920;2023-03-03T00:03:53;102.30;;;32.70;;
35576;SDS011;21680;52.400;16.920;2023-03-03T00:06:19;84.50;;;29.30;;
35576;SDS011;21680;52.400;16.920;2023-03-03T00:08:45;81.40;;;27.40;;
35576;SDS011;21680;52.400;16.920;2023-03-03T00:11:10;90.80;;;29.40;;
35576;SDS011;21680;52.400;16.920;2023-03-03T00:13:47;87.60;;;29.10;;
35576;SDS011;21680;52.400;16.920;2023-03-03T00:16:27;76.00;;;26.30;;
35576;SDS011;21680;52.400;16.920;2023-03-03T00:21:22;88.30;;;28.70;;
35576;SDS011;21680;52.400;16.920;2023-03-03T00:23:50;81.60;;;24.80;;
35576;SDS011;21680;52.400;16.920;2023-03-03T00:29:17;69.70;;;24.10;;
35576;SDS011;21680;52.400;16.920;2023-03-03T00:31:50;78.00;;;25.40;;
35576;SDS011;21680;52.400;16.920;2023-03-03T00:36:41;97.40;;;28.00;;
35576;SDS011;21680;52.400;16.920;2023-03-03T00:39:17;83.80;;;26.40;;
35576;SDS011;21680;52.400;16.920;2023-03-03T00:41:47;67.70;;;23.10;;
35576;SDS011;21680;52.400;16.920;2023-03-03T00:44:37;71.40;;;24.40;;
35576;SDS011;21680;52.400;16.920;2023-03-03T00:52:36;84.70;;;27.10;;
35576;SDS011;21680;52.400;16.920;2023-03-03T00:55:04;70.10;;;24.50;;
35576;SDS011;21680;52.400;16.920;2023-03-03T00:57:31;77.90;;;26.60;;
35576;SDS011;21680;52.400;16.920;2023-03-03T00:59:57;78.80;;;24.40;;
35576;SDS011;21680;52.400;16.920;2023-03-03T01:02:22;78.10;;;25.40;;
35576;SDS011;21680;52.400;16.920;2023-03-03T01:04:49;75.20;;;24.90;;
35576;SDS011;21680;52.400;16.920;2023-03-03T01:07:16;67.30;;;22.90;;
35576;SDS011;21680;52.400;16.920;2023-03-03T01:09:42;83.90;;;27.00;;
35576;SDS011;21680;52.400;16.920;2023-03-03T01:12:08;89.50;;;26.50;;
35576;SDS011;21680;52.400;16.920;2023-03-03T01:14:34;71.30;;;23.10;;
35576;SDS011;21680;52.400;16.920;2023-03-03T01:16:59;63.10;;;22.00;;
35576;SDS011;21680;52.400;16.920;2023-03-03T01:19:25;71.60;;;23.30;;
35576;SDS011;21680;52.400;16.920;2023-03-03T01:21:50;69.80;;;21.80;;
35576;SDS011;21680;52.400;16.920;2023-03-03T01:24:16;68.00;;;23.10;;
35576;SDS011;21680;52.400;16.920;2023-03-03T01:26:41;57.60;;;20.10;;
35576;SDS011;21680;52.400;16.920;2023-03-03T01:29:06;79.70;;;23.70;;
35576;SDS011;21680;52.400;16.920;2023-03-03T01:31:32;78.10;;;23.90;;
35576;SDS011;21680;52.400;16.920;2023-03-03T01:33:57;74.50;;;22.80;;
35576;SDS011;21680;52.400;16.920;2023-03-03T01:36:23;69.40;;;22.10;;
35576;SDS011;21680;52.400;16.920;2023-03-03T01:38:49;63.50;;;21.20;;
35576;SDS011;21680;52.400;16.920;2023-03-03T01:41:15;60.10;;;20.80;;
35576;SDS011;21680;52.400;16.920;2023-03-03T01:43:44;58.70;;;17.60;;
35576;SDS011;21680;52.400;16.920;2023-03-03T01:49:28;60.40;;;20.60;;
35576;SDS011;21680;52.400;16.920;2023-03-03T01:51:59;46.30;;;15.60;;
35576;SDS011;21680;52.400;16.920;2023-03-03T01:54:28;55.00;;;18.80;;
35576;SDS011;21680;52.400;16.920;2023-03-03T01:56:58;63.70;;;20.80;;
35576;SDS011;21680;52.400;16.920;2023-03-03T01:59:28;42.50;;;16.10;;
35576;SDS011;21680;52.400;16.920;2023-03-03T02:01:57;45.20;;;15.50;;
35576;SDS011;21680;52.400;16.920;2023-03-03T02:04:23;51.70;;;18.70;;
35576;SDS011;21680;52.400;16.920;2023-03-03T02:06:51;35.90;;;13.30;;
35576;SDS011;21680;52.400;16.920;2023-03-03T02:09:25;44.10;;;16.40;;
35576;SDS011;21680;52.400;16.920;2023-03-03T02:11:59;42.80;;;16.80;;
35576;SDS011;21680;52.400;16.920;2023-03-03T02:14:27;47.20;;;18.40;;
35576;SDS011;21680;52.400;16.920;2023-03-03T02:16:53;52.00;;;16.80;;
35576;SDS011;21680;52.400;16.920;2023-03-03T02:19:28;50.20;;;17.10;;
35576;SDS011;21680;52.400;16.920;2023-03-03T02:22:00;54.30;;;19.40;;
35576;SDS011;21680;52.400;16.920;2023-03-03T02:24:32;56.70;;;19.80;;
35576;SDS011;21680;52.400;16.920;2023-03-03T02:27:02;56.30;;;16.50;;
35576;SDS011;21680;52.400;16.920;2023-03-03T02:29:28;53.90;;;18.80;;
35576;SDS011;21680;52.400;16.920;2023-03-03T02:31:53;54.00;;;18.10;;
35576;SDS011;21680;52.400;16.920;2023-03-03T02:34:18;56.20;;;18.80;;
35576;SDS011;21680;52.400;16.920;2023-03-03T02:36:43;54.60;;;19.10;;
35576;SDS011;21680;52.400;16.920;2023-03-03T02:39:10;58.10;;;18.70;;
35576;SDS011;21680;52.400;16.920;2023-03-03T02:44:36;64.60;;;18.70;;
35576;SDS011;21680;52.400;16.920;2023-03-03T02:47:02;55.50;;;18.50;;
35576;SDS011;21680;52.400;16.920;2023-03-03T02:49:29;50.10;;;16.00;;
35576;SDS011;21680;52.400;16.920;2023-03-03T02:51:57;57.90;;;19.40;;
35576;SDS011;21680;52.400;16.920;2023-03-03T02:54:24;46.50;;;15.30;;
35576;SDS011;21680;52.400;16.920;2023-03-03T02:56:51;36.50;;;13.40;;
35576;SDS011;21680;52.400;16.920;2023-03-03T02:59:17;44.30;;;15.60;;
35576;SDS011;21680;52.400;16.920;2023-03-03T03:01:43;44.60;;;14.30;;
35576;SDS011;21680;52.400;16.920;2023-03-03T03:04:10;41.90;;;15.40;;
35576;SDS011;21680;52.400;16.920;2023-03-03T03:06:38;44.80;;;15.80;;
35576;SDS011;21680;52.400;16.920;2023-03-03T03:09:04;47.20;;;16.40;;
35576;SDS011;21680;52.400;16.920;2023-03-03T03:11:31;38.40;;;12.90;;
35576;SDS011;21680;52.400;16.920;2023-03-03T03:13:56;42.10;;;14.40;;
35576;SDS011;21680;52.400;16.920;2023-03-03T03:16:22;42.80;;;14.40;;
35576;SDS011;21680;52.400;16.920;2023-03-03T03:18:47;49.00;;;14.00;;
35576;SDS011;21680;52.400;16.920;2023-03-03T03:21:14;30.00;;;11.80;;
35576;SDS011;21680;52.400;16.920;2023-03-03T03:23:40;31.10;;;11.50;;
35576;SDS011;21680;52.400;16.920;2023-03-03T03:26:06;34.60;;;13.30;;
35576;SDS011;21680;52.400;16.920;2023-03-03T03:28:32;39.40;;;13.50;;
35576;SDS011;21680;52.400;16.920;2023-03-03T03:30:58;34.30;;;13.20;;
35576;SDS011;21680;52.400;16.920;2023-03-03T03:33:23;30.90;;;10.00;;
35576;SDS011;21680;52.400;16.920;2023-03-03T03:35:49;21.90;;;9.40;;
35576;SDS011;21680;52.400;16.920;2023-03-03T03:38:14;32.10;;;12.60;;
35576;SDS011;21680;52.400;16.920;2023-03-03T03:40:40;33.50;;;12.80;;
35576;SDS011;21680;52.400;16.920;2023-03-03T03:43:05;31.90;;;12.00;;
35576;SDS011;21680;52.400;16.920;2023-03-03T03:45:31;39.90;;;14.10;;
35576;SDS011;21680;52.400;16.920;2023-03-03T03:47:57;43.30;;;14.90;;
35576;SDS011;21680;52.400;16.920;2023-03-03T03:50:22;46.80;;;15.30;;
35576;SDS011;21680;52.400;16.920;2023-03-03T03:52:48;34.10;;;11.90;;
35576;SDS011;21680;52.400;16.920;2023-03-03T03:55:14;34.30;;;11.60;;
35576;SDS011;21680;52.400;16.920;2023-03-03T03:57:40;42.20;;;15.70;;
35576;SDS011;21680;52.400;16.920;2023-03-03T04:00:06;41.80;;;14.80;;
35576;SDS011;21680;52.400;16.920;2023-03-03T04:02:34;48.00;;;16.20;;
35576;SDS011;21680;52.400;16.920;2023-03-03T04:05:00;45.60;;;16.30;;
35576;SDS011;21680;52.400;16.920;2023-03-03T04:07:25;41.70;;;14.50;;
35576;SDS011;21680;52.400;16.920;2023-03-03T04:09:51;57.90;;;16.80;;
35576;SDS011;21680;52.400;16.920;2023-03-03T04:12:16;42.50;;;15.30;;
35576;SDS011;21680;52.400;16.920;2023-03-03T04:14:41;43.40;;;14.60;;
35576;SDS011;21680;52.400;16.920;2023-03-03T04:17:07;43.50;;;15.60;;
35576;SDS011;21680;52.400;16.920;2023-03-03T04:19:32;46.90;;;17.00;;
35576;SDS011;21680;52.400;16.920;2023-03-03T04:21:57;50.20;;;14.80;;
35576;SDS011;21680;52.400;16.920;2023-03-03T04:24:22;42.90;;;15.90;;
35576;SDS011;21680;52.400;16.920;2023-03-03T04:26:48;41.00;;;14.30;;
35576;SDS011;21680;52.400;16.920;2023-03-03T04:29:13;48.30;;;15.20;;
35576;SDS011;21680;52.400;16.920;2023-03-03T04:31:38;40.30;;;13.10;;
35576;SDS011;21680;52.400;16.920;2023-03-03T04:34:03;43.10;;;14.70;;
35576;SDS011;21680;52.400;16.920;2023-03-03T04:36:29;42.30;;;13.40;;
35576;SDS011;21680;52.400;16.920;2023-03-03T04:38:54;49.40;;;14.30;;
35576;SDS011;21680;52.400;16.920;2023-03-03T04:41:20;53.90;;;17.30;;
35576;SDS011;21680;52.400;16.920;2023-03-03T04:43:45;38.60;;;13.80;;
35576;SDS011;21680;52.400;16.920;2023-03-03T04:46:10;44.80;;;14.20;;
35576;SDS011;21680;52.400;16.920;2023-03-03T04:48:36;39.10;;;13.80;;
35576;SDS011;21680;52.400;16.920;2023-03-03T04:51:02;39.70;;;13.00;;
35576;SDS011;21680;52.400;16.920;2023-03-03T04:53:28;34.50;;;12.20;;
35576;SDS011;21680;52.400;16.920;2023-03-03T04:55:53;35.20;;;12.90;;
35576;SDS011;21680;52.400;16.920;2023-03-03T04:58:19;47.50;;;15.40;;
35576;SDS011;21680;52.400;16.920;2023-03-03T05:00:45;40.60;;;14.00;;
35576;SDS011;21680;52.400;16.920;2023-03-03T05:03:12;42.10;;;13.50;;
35576;SDS011;21680;52.400;16.920;2023-03-03T05:05:37;36.40;;;12.90;;
35576;SDS011;21680;52.400;16.920;2023-03-03T05:08:04;41.20;;;14.00;;
35576;SDS011;21680;52.400;16.920;2023-03-03T05:10:30;41.50;;;13.70;;
35576;SDS011;21680;52.400;16.920;2023-03-03T05:12:55;43.80;;;14.70;;
35576;SDS011;21680;52.400;16.920;2023-03-03T05:15:20;49.30;;;16.50;;
35576;SDS011;21680;52.400;16.920;2023-03-03T05:17:46;43.90;;;15.60;;
35576;SDS011;21680;52.400;16.920;2023-03-03T05:20:12;46.50;;;15.80;;
35576;SDS011;21680;52.400;16.920;2023-03-03T05:22:38;50.90;;;17.10;;
35576;SDS011;21680;52.400;16.920;2023-03-03T05:25:03;47.40;;;16.00;;
35576;SDS011;21680;52.400;16.920;2023-03-03T05:27:29;54.40;;;16.40;;
35576;SDS011;21680;52.400;16.920;2023-03-03T05:29:55;61.00;;;18.50;;
35576;SDS011;21680;52.400;16.920;2023-03-03T05:32:21;47.10;;;15.80;;
35576;SDS011;21680;52.400;16.920;2023-03-03T05:34:46;36.60;;;11.90;;
35576;SDS011;21680;52.400;16.920;2023-03-03T05:37:11;45.90;;;15.30;;
35576;SDS011;21680;52.400;16.920;2023-03-03T05:39:37;55.40;;;16.60;;
35576;SDS011;21680;52.400;16.920;2023-03-03T05:42:03;50.30;;;14.90;;
35576;SDS011;21680;52.400;16.920;2023-03-03T05:44:28;43.80;;;13.70;;
35576;SDS011;21680;52.400;16.920;2023-03-03T05:46:53;43.40;;;14.90;;
35576;SDS011;21680;52.400;16.920;2023-03-03T05:49:20;48.90;;;16.30;;
35576;SDS011;21680;52.400;16.920;2023-03-03T05:51:45;38.40;;;13.60;;
35576;SDS011;21680;52.400;16.920;2023-03-03T05:54:11;36.20;;;13.20;;
35576;SDS011;21680;52.400;16.920;2023-03-03T05:56:36;43.30;;;13.70;;
35576;SDS011;21680;52.400;16.920;2023-03-03T05:59:01;34.70;;;12.50;;
35576;SDS011;21680;52.400;16.920;2023-03-03T06:01:27;28.00;;;10.90;;
35576;SDS011;21680;52.400;16.920;2023-03-03T06:03:53;32.00;;;9.60;;
35576;SDS011;21680;52.400;16.920;2023-03-03T06:06:18;30.40;;;11.20;;
35576;SDS011;21680;52.400;16.920;2023-03-03T06:08:44;41.50;;;13.50;;
35576;SDS011;21680;52.400;16.920;2023-03-03T06:11:10;42.40;;;14.80;;
35576;SDS011;21680;52.400;16.920;2023-03-03T06:13:37;24.50;;;9.40;;
35576;SDS011;21680;52.400;16.920;2023-03-03T06:16:02;32.00;;;10.60;;
35576;SDS011;21680;52.400;16.920;2023-03-03T06:18:27;29.60;;;10.80;;
35576;SDS011;21680;52.400;16.920;2023-03-03T06:20:53;29.20;;;11.40;;
35576;SDS011;21680;52.400;16.920;2023-03-03T06:23:19;39.90;;;12.70;;
35576;SDS011;21680;52.400;16.920;2023-03-03T06:25:45;29.90;;;11.00;;
35576;SDS011;21680;52.400;16.920;2023-03-03T06:28:11;35.20;;;11.60;;
35576;SDS011;21680;52.400;16.920;2023-03-03T06:30:37;28.40;;;10.30;;
35576;SDS011;21680;52.400;16.920;2023-03-03T06:33:03;37.60;;;12.00;;
35576;SDS011;21680;52.400;16.920;2023-03-03T06:35:28;28.40;;;11.90;;
35576;SDS011;21680;52.400;16.920;2023-03-03T06:37:54;30.60;;;12.00;;
35576;SDS011;21680;52.400;16.920;2023-03-03T06:40:19;34.30;;;11.80;;
35576;SDS011;21680;52.400;16.920;2023-03-03T06:42:44;32.00;;;11.10;;
35576;SDS011;21680;52.400;16.920;2023-03-03T06:45:10;28.60;;;10.50;;
35576;SDS011;21680;52.400;16.920;2023-03-03T06:47:36;38.70;;;12.50;;
35576;SDS011;21680;52.400;16.920;2023-03-03T06:50:01;39.70;;;12.80;;
35576;SDS011;21680;52.400;16.920;2023-03-03T06:52:26;31.60;;;11.50;;
35576;SDS011;21680;52.400;16.920;2023-03-03T06:54:52;33.60;;;11.60;;
35576;SDS011;21680;52.400;16.920;2023-03-03T06:57:30;37.80;;;13.70;;
35576;SDS011;21680;52.400;16.920;2023-03-03T07:00:00;35.50;;;12.70;;
35576;SDS011;21680;52.400;16.920;2023-03-03T07:02:38;28.20;;;9.70;;
35576;SDS011;21680;52.400;16.920;2023-03-03T07:05:05;29.00;;;9.80;;
35576;SDS011;21680;52.400;16.920;2023-03-03T07:07:35;28.70;;;11.30;;
35576;SDS011;21680;52.400;16.920;2023-03-03T07:10:00;28.80;;;9.60;;
35576;SDS011;21680;52.400;16.920;2023-03-03T07:12:44;25.10;;;9.40;;
35576;SDS011;21680;52.400;16.920;2023-03-03T07:17:49;30.40;;;11.50;;
35576;SDS011;21680;52.400;16.920;2023-03-03T07:20:20;23.50;;;9.50;;
35576;SDS011;21680;52.400;16.920;2023-03-03T07:22:48;28.70;;;10.90;;
35576;SDS011;21680;52.400;16.920;2023-03-03T07:25:18;23.30;;;9.60;;
35576;SDS011;21680;52.400;16.920;2023-03-03T07:28:00;26.00;;;9.70;;
35576;SDS011;21680;52.400;16.920;2023-03-03T07:30:44;30.00;;;10.50;;
35576;SDS011;21680;52.400;16.920;2023-03-03T07:33:33;26.80;;;10.30;;
35576;SDS011;21680;52.400;16.920;2023-03-03T07:35:59;21.60;;;8.90;;
35576;SDS011;21680;52.400;16.920;2023-03-03T07:40:59;24.10;;;10.20;;
35576;SDS011;21680;52.400;16.920;2023-03-03T07:48:36;18.60;;;7.90;;
35576;SDS011;21680;52.400;16.920;2023-03-03T07:51:10;30.30;;;10.20;;
35576;SDS011;21680;52.400;16.920;2023-03-03T07:53:39;27.40;;;8.80;;
35576;SDS011;21680;52.400;16.920;2023-03-03T07:56:11;26.60;;;11.30;;
35576;SDS011;21680;52.400;16.920;2023-03-03T07:58:41;30.20;;;10.80;;
35576;SDS011;21680;52.400;16.920;2023-03-03T08:04:08;28.10;;;9.90;;
35576;SDS011;21680;52.400;16.920;2023-03-03T08:06:43;28.30;;;10.90;;
35576;SDS011;21680;52.400;16.920;2023-03-03T08:11:54;36.30;;;11.90;;
35576;SDS011;21680;52.400;16.920;2023-03-03T08:14:34;31.00;;;11.00;;
35576;SDS011;21680;52.400;16.920;2023-03-03T08:17:05;33.90;;;13.30;;
35576;SDS011;21680;52.400;16.920;2023-03-03T08:19:40;30.90;;;12.60;;
35576;SDS011;21680;52.400;16.920;2023-03-03T08:22:11;31.70;;;12.00;;
35576;SDS011;21680;52.400;16.920;2023-03-03T08:24:42;36.00;;;12.50;;
35576;SDS011;21680;52.400;16.920;2023-03-03T08:27:07;31.60;;;11.70;;
35576;SDS011;21680;52.400;16.920;2023-03-03T08:29:33;34.80;;;13.40;;
35576;SDS011;21680;52.400;16.920;2023-03-03T08:31:58;27.40;;;10.30;;
35576;SDS011;21680;52.400;16.920;2023-03-03T08:34:23;39.30;;;13.70;;
35576;SDS011;21680;52.400;16.920;2023-03-03T08:36:49;34.90;;;13.10;;
35576;SDS011;21680;52.400;16.920;2023-03-03T08:39:14;43.50;;;14.60;;
35576;SDS011;21680;52.400;16.920;2023-03-03T08:41:40;38.00;;;14.20;;
35576;SDS011;21680;52.400;16.920;2023-03-03T08:44:08;41.40;;;15.40;;
35576;SDS011;21680;52.400;16.920;2023-03-03T08:46:33;31.90;;;10.30;;
35576;SDS011;21680;52.400;16.920;2023-03-03T08:48:59;36.90;;;12.60;;
35576;SDS011;21680;52.400;16.920;2023-03-03T08:51:24;33.60;;;11.90;;
35576;SDS011;21680;52.400;16.920;2023-03-03T08:53:50;31.90;;;12.50;;
35576;SDS011;21680;52.400;16.920;2023-03-03T08:56:15;37.50;;;14.60;;
35576;SDS011;21680;52.400;16.920;2023-03-03T08:58:41;40.00;;;13.10;;
35576;SDS011;21680;52.400;16.920;2023-03-03T09:01:12;36.50;;;14.10;;
35576;SDS011;21680;52.400;16.920;2023-03-03T09:03:42;34.80;;;13.60;;
35576;SDS011;21680;52.400;16.920;2023-03-03T09:06:08;47.60;;;14.10;;
35576;SDS011;21680;52.400;16.920;2023-03-03T09:08:34;36.70;;;13.00;;
35576;SDS011;21680;52.400;16.920;2023-03-03T09:10:59;39.20;;;13.80;;
35576;SDS011;21680;52.400;16.920;2023-03-03T09:13:27;44.00;;;16.60;;
35576;SDS011;21680;52.400;16.920;2023-03-03T09:15:54;52.50;;;16.80;;
35576;SDS011;21680;52.400;16.920;2023-03-03T09:18:30;45.20;;;15.60;;
35576;SDS011;21680;52.400;16.920;2023-03-03T09:20:59;42.30;;;14.20;;
35576;SDS011;21680;52.400;16.920;2023-03-03T09:23:32;37.70;;;14.20;;
35576;SDS011;21680;52.400;16.920;2023-03-03T09:28:57;34.80;;;12.80;;
35576;SDS011;21680;52.400;16.920;2023-03-03T09:31:41;34.90;;;13.40;;
35576;SDS011;21680;52.400;16.920;2023-03-03T09:36:46;31.20;;;13.20;;
35576;SDS011;21680;52.400;16.920;2023-03-03T09:44:23;38.40;;;13.60;;
35576;SDS011;21680;52.400;16.920;2023-03-03T09:47:33;43.70;;;13.30;;
35576;SDS011;21680;52.400;16.920;2023-03-03T09:58:11;41.60;;;14.00;;
35576;SDS011;21680;52.400;16.920;2023-03-03T10:00:58;43.80;;;11.70;;
35576;SDS011;21680;52.400;16.920;2023-03-03T10:06:10;51.00;;;15.20;;
35576;SDS011;21680;52.400;16.920;2023-03-03T10:08:48;36.60;;;12.30;;
35576;SDS011;21680;52.400;16.920;2023-03-03T10:11:33;40.80;;;14.50;;
35576;SDS011;21680;52.400;16.920;2023-03-03T10:19:37;39.80;;;12.90;;
35576;SDS011;21680;52.400;16.920;2023-03-03T10:36:18;45.80;;;14.40;;
35576;SDS011;21680;52.400;16.920;2023-03-03T10:38:53;44.70;;;16.30;;
35576;SDS011;21680;52.400;16.920;2023-03-03T10:41:30;45.00;;;15.40;;
35576;SDS011;21680;52.400;16.920;2023-03-03T10:44:15;45.60;;;15.10;;
35576;SDS011;21680;52.400;16.920;2023-03-03T10:47:10;46.90;;;14.60;;
35576;SDS011;21680;52.400;16.920;2023-03-03T11:00:23;50.10;;;15.60;;
35576;SDS011;21680;52.400;16.920;2023-03-03T11:05:47;52.30;;;15.60;;
35576;SDS011;21680;52.400;16.920;2023-03-03T11:08:20;45.40;;;15.60;;
35576;SDS011;21680;52.400;16.920;2023-03-03T11:11:00;43.90;;;15.30;;
35576;SDS011;21680;52.400;16.920;2023-03-03T11:16:23;51.10;;;16.30;;
35576;SDS011;21680;52.400;16.920;2023-03-03T11:22:00;47.10;;;16.30;;
35576;SDS011;21680;52.400;16.920;2023-03-03T11:39:00;38.90;;;13.10;;
35576;SDS011;21680;52.400;16.920;2023-03-03T11:41:52;45.30;;;15.60;;
35576;SDS011;21680;52.400;16.920;2023-03-03T11:44:45;43.00;;;14.40;;
35576;SDS011;21680;52.400;16.920;2023-03-03T11:47:21;44.00;;;13.70;;
35576;SDS011;21680;52.400;16.920;2023-03-03T11:49:52;49.80;;;13.90;;
35576;SDS011;21680;52.400;16.920;2023-03-03T11:52:42;45.30;;;15.20;;
35576;SDS011;21680;52.400;16.920;2023-03-03T11:58:16;47.70;;;15.70;;
35576;SDS011;21680;52.400;16.920;2023-03-03T12:12:21;60.10;;;17.00;;
35576;SDS011;21680;52.400;16.920;2023-03-03T12:14:53;42.50;;;14.40;;
35576;SDS011;21680;52.400;16.920;2023-03-03T12:20:28;38.90;;;13.80;;
35576;SDS011;21680;52.400;16.920;2023-03-03T12:28:36;54.10;;;17.90;;
35576;SDS011;21680;52.400;16.920;2023-03-03T12:33:51;49.60;;;17.60;;
35576;SDS011;21680;52.400;16.920;2023-03-03T12:39:15;53.70;;;15.90;;
35576;SDS011;21680;52.400;16.920;2023-03-03T12:41:52;42.70;;;15.30;;
35576;SDS011;21680;52.400;16.920;2023-03-03T12:44:34;48.10;;;16.50;;
35576;SDS011;21680;52.400;16.920;2023-03-03T12:47:13;47.80;;;17.80;;
35576;SDS011;21680;52.400;16.920;2023-03-03T12:55:19;45.70;;;15.60;;
35576;SDS011;21680;52.400;16.920;2023-03-03T13:00:51;46.80;;;15.30;;
35576;SDS011;21680;52.400;16.920;2023-03-03T13:03:28;48.30;;;14.70;;
35576;SDS011;21680;52.400;16.920;2023-03-03T13:14:03;44.80;;;15.70;;
35576;SDS011;21680;52.400;16.920;2023-03-03T13:19:15;39.70;;;13.60;;
35576;SDS011;21680;52.400;16.920;2023-03-03T13:24:50;47.90;;;15.20;;
35576;SDS011;21680;52.400;16.920;2023-03-03T13:27:24;29.10;;;10.70;;
35576;SDS011;21680;52.400;16.920;2023-03-03T13:30:03;32.70;;;12.10;;
35576;SDS011;21680;52.400;16.920;2023-03-03T13:32:53;45.30;;;15.20;;
35576;SDS011;21680;52.400;16.920;2023-03-03T13:35:29;35.20;;;11.90;;
35576;SDS011;21680;52.400;16.920;2023-03-03T13:37:56;41.60;;;15.30;;
35576;SDS011;21680;52.400;16.920;2023-03-03T13:40:23;35.90;;;14.30;;
35576;SDS011;21680;52.400;16.920;2023-03-03T13:42:58;39.30;;;14.80;;
35576;SDS011;21680;52.400;16.920;2023-03-03T13:45:49;29.80;;;11.00;;
35576;SDS011;21680;52.400;16.920;2023-03-03T13:53:52;34.30;;;11.60;;
35576;SDS011;21680;52.400;16.920;2023-03-03T13:59:34;22.50;;;10.00;;
35576;SDS011;21680;52.400;16.920;2023-03-03T14:04:53;28.90;;;10.50;;
35576;SDS011;21680;52.400;16.920;2023-03-03T14:07:44;28.30;;;10.30;;
35576;SDS011;21680;52.400;16.920;2023-03-03T14:10:28;33.90;;;12.80;;
35576;SDS011;21680;52.400;16.920;2023-03-03T14:13:07;28.60;;;11.70;;
35576;SDS011;21680;52.400;16.920;2023-03-03T14:18:27;24.90;;;10.40;;
35576;SDS011;21680;52.400;16.920;2023-03-03T14:26:15;33.00;;;12.30;;
35576;SDS011;21680;52.400;16.920;2023-03-03T14:31:20;34.00;;;12.90;;
35576;SDS011;21680;52.400;16.920;2023-03-03T14:36:58;33.70;;;13.30;;
35576;SDS011;21680;52.400;16.920;2023-03-03T14:39:37;32.40;;;13.70;;
35576;SDS011;21680;52.400;16.920;2023-03-03T14:42:11;31.40;;;11.40;;
35576;SDS011;21680;52.400;16.920;2023-03-03T14:47:19;30.40;;;10.40;;
35576;SDS011;21680;52.400;16.920;2023-03-03T14:49:50;28.40;;;11.60;;
35576;SDS011;21680;52.400;16.920;2023-03-03T14:52:20;33.10;;;11.40;;
35576;SDS011;21680;52.400;16.920;2023-03-03T14:54:51;23.20;;;10.10;;
35576;SDS011;21680;52.400;16.920;2023-03-03T15:00:25;25.10;;;10.10;;
35576;SDS011;21680;52.400;16.920;2023-03-03T15:03:14;30.40;;;10.60;;
35576;SDS011;21680;52.400;16.920;2023-03-03T15:05:54;25.90;;;9.70;;
35576;SDS011;21680;52.400;16.920;2023-03-03T15:08:34;26.10;;;11.40;;
35576;SDS011;21680;52.400;16.920;2023-03-03T15:11:10;35.40;;;11.70;;
35576;SDS011;21680;52.400;16.920;2023-03-03T15:13:38;23.20;;;10.00;;
35576;SDS011;21680;52.400;16.920;2023-03-03T15:18:35;22.80;;;9.80;;
35576;SDS011;21680;52.400;16.920;2023-03-03T15:21:34;24.70;;;10.00;;
35576;SDS011;21680;52.400;16.920;2023-03-03T15:24:14;25.70;;;11.00;;
35576;SDS011;21680;52.400;16.920;2023-03-03T15:26:51;25.20;;;9.30;;
35576;SDS011;21680;52.400;16.920;2023-03-03T15:42:56;26.60;;;10.60;;
35576;SDS011;21680;52.400;16.920;2023-03-03T15:57:17;32.20;;;9.20;;
35576;SDS011;21680;52.400;16.920;2023-03-03T15:59:53;22.10;;;10.90;;
35576;SDS011;21680;52.400;16.920;2023-03-03T16:02:42;19.60;;;9.50;;
35576;SDS011;21680;52.400;16.920;2023-03-03T16:05:21;23.90;;;9.10;;
35576;SDS011;21680;52.400;16.920;2023-03-03T16:10:49;21.10;;;9.30;;
35576;SDS011;21680;52.400;16.920;2023-03-03T16:13:28;25.60;;;9.80;;
35576;SDS011;21680;52.400;16.920;2023-03-03T16:18:55;21.70;;;9.60;;
35576;SDS011;21680;52.400;16.920;2023-03-03T16:29:45;25.20;;;10.00;;
35576;SDS011;21680;52.400;16.920;2023-03-03T16:35:58;26.30;;;11.20;;
35576;SDS011;21680;52.400;16.920;2023-03-03T16:38:31;31.30;;;12.20;;
35576;SDS011;21680;52.400;16.920;2023-03-03T16:41:11;24.70;;;11.90;;
35576;SDS011;21680;52.400;16.920;2023-03-03T16:46:44;29.00;;;12.30;;
35576;SDS011;21680;52.400;16.920;2023-03-03T16:52:05;32.20;;;11.70;;
35576;SDS011;21680;52.400;16.920;2023-03-03T16:54:55;24.70;;;10.70;;
35576;SDS011;21680;52.400;16.920;2023-03-03T17:02:51;25.80;;;11.70;;
35576;SDS011;21680;52.400;16.920;2023-03-03T17:16:29;27.50;;;11.70;;
35576;SDS011;21680;52.400;16.920;2023-03-03T17:24:38;29.20;;;12.70;;
35576;SDS011;21680;52.400;16.920;2023-03-03T17:40:52;28.00;;;10.70;;
35576;SDS011;21680;52.400;16.920;2023-03-03T17:46:22;33.60;;;11.90;;
35576;SDS011;21680;52.400;16.920;2023-03-03T18:05:59;31.10;;;11.40;;
35576;SDS011;21680;52.400;16.920;2023-03-03T18:24:24;41.90;;;14.60;;
35576;SDS011;21680;52.400;16.920;2023-03-03T18:26:53;42.50;;;15.70;;
35576;SDS011;21680;52.400;16.920;2023-03-03T18:36:57;44.90;;;17.10;;
35576;SDS011;21680;52.400;16.920;2023-03-03T18:42:28;50.70;;;17.70;;
35576;SDS011;21680;52.400;16.920;2023-03-03T18:45:09;50.00;;;18.60;;
35576;SDS011;21680;52.400;16.920;2023-03-03T18:50:32;52.10;;;16.60;;
35576;SDS011;21680;52.400;16.920;2023-03-03T18:53:06;52.00;;;18.00;;
35576;SDS011;21680;52.400;16.920;2023-03-03T18:55:38;62.50;;;20.50;;
35576;SDS011;21680;52.400;16.920;2023-03-03T19:03:26;58.90;;;20.30;;
35576;SDS011;21680;52.400;16.920;2023-03-03T19:05:52;53.50;;;18.50;;
35576;SDS011;21680;52.400;16.920;2023-03-03T19:08:25;58.40;;;19.60;;
35576;SDS011;21680;52.400;16.920;2023-03-03T19:10:57;52.70;;;17.10;;
35576;SDS011;21680;52.400;16.920;2023-03-03T19:15:59;60.90;;;19.50;;
35576;SDS011;21680;52.400;16.920;2023-03-03T19:18:27;66.40;;;21.60;;
35576;SDS011;21680;52.400;16.920;2023-03-03T19:21:05;68.60;;;21.40;;
35576;SDS011;21680;52.400;16.920;2023-03-03T19:34:34;53.00;;;18.00;;
35576;SDS011;21680;52.400;16.920;2023-03-03T19:37:36;55.00;;;19.60;;
35576;SDS011;21680;52.400;16.920;2023-03-03T19:42:59;51.20;;;18.70;;
35576;SDS011;21680;52.400;16.920;2023-03-03T19:58:31;57.70;;;20.30;;
35576;SDS011;21680;52.400;16.920;2023-03-03T20:04:41;61.00;;;20.80;;
35576;SDS011;21680;52.400;16.920;2023-03-03T20:07:36;65.20;;;23.40;;
35576;SDS011;21680;52.400;16.920;2023-03-03T20:15:09;79.40;;;28.30;;
35576;SDS011;21680;52.400;16.920;2023-03-03T20:20:32;71.50;;;27.30;;
35576;SDS011;21680;52.400;16.920;2023-03-03T20:23:22;77.10;;;26.30;;
35576;SDS011;21680;52.400;16.920;2023-03-03T20:25:54;70.80;;;27.10;;
35576;SDS011;21680;52.400;16.920;2023-03-03T20:31:26;68.70;;;27.10;;
35576;SDS011;21680;52.400;16.920;2023-03-03T20:34:27;61.70;;;25.60;;
35576;SDS011;21680;52.400;16.920;2023-03-03T20:37:16;62.60;;;26.30;;
35576;SDS011;21680;52.400;16.920;2023-03-03T20:42:53;61.20;;;22.30;;
35576;SDS011;21680;52.400;16.920;2023-03-03T20:45:40;58.40;;;22.20;;
35576;SDS011;21680;52.400;16.920;2023-03-03T20:50:50;61.30;;;22.80;;
35576;SDS011;21680;52.400;16.920;2023-03-03T20:53:34;47.00;;;17.00;;